Time;durP1;ratioP1;P1;durP2;ratioP2;P2;SDS_P1;SDS_P2;PMS_P1;PMS_P2;Temp;Humidity;BMP_temperature;BMP_pressure;BME280_temperature;BME280_humidity;BME280_pressure;Samples;Min_cycle;Max_cycle;Signal;HPM_P1;HPM_P2
2022/11/01 00:00:07;;;;;;;;;;;20.40;76.00;;;;;;4492569;31;20170;-68
2022/11/01 00:02:33;;;;;;;;;;;20.40;76.00;;;;;;4492192;31;20013;-68
2022/11/01 00:04:59;;;;;;;;;;;20.40;76.00;;;;;;4492674;31;19966;-68
2022/11/01 00:07:24;;;;;;;;;;;20.40;76.00;;;;;;4492613;31;20382;-67
2022/11/01 00:09:50;;;;;;;;;;;20.30;76.00;;;;;;4492975;31;19980;-68
2022/11/01 00:12:16;;;;;;;;;;;20.30;76.00;;;;;;4492693;31;19974;-68
2022/11/01 00:14:41;;;;;;;;;;;20.30;76.00;;;;;;4492511;31;19981;-68
2022/11/01 00:17:07;;;;;;;;;;;20.30;75.90;;;;;;4492524;31;19961;-67
2022/11/01 00:19:33;;;;;;;;;;;20.30;75.90;;;;;;4492514;31;19974;-68
2022/11/01 00:21:58;;;;;;;;;;;20.30;75.90;;;;;;4492551;32;19981;-68
2022/11/01 00:24:24;;;;;;;;;;;20.30;76.00;;;;;;4478444;32;19989;-68
2022/11/01 00:26:50;;;;;;;;;;;20.30;75.90;;;;;;4492552;32;19985;-67
2022/11/01 00:29:16;;;;;;;;;;;20.30;75.90;;;;;;4492402;32;20095;-68
2022/11/01 00:31:42;;;;;;;;;;;20.30;75.90;;;;;;4492534;32;20413;-67
2022/11/01 00:34:08;;;;;;;;;;;20.20;75.90;;;;;;4492560;32;19984;-68
2022/11/01 00:36:34;;;;;;;;;;;20.20;75.90;;;;;;4492254;32;20017;-67
2022/11/01 00:39:00;;;;;;;;;;;20.20;75.90;;;;;;4492493;32;19977;-67
2022/11/01 00:41:27;;;;;;;;;;;20.30;75.90;;;;;;4492438;32;19989;-67
2022/11/01 00:43:52;;;;;;;;;;;20.20;75.90;;;;;;4478004;32;20276;-68
2022/11/01 00:46:18;;;;;;;;;;;20.30;75.90;;;;;;4492412;32;20090;-67
2022/11/01 00:48:44;;;;;;;;;;;20.20;75.90;;;;;;4492138;32;20139;-67
2022/11/01 00:51:10;;;;;;;;;;;20.20;75.90;;;;;;4492393;32;19961;-67
2022/11/01 00:53:35;;;;;;;;;;;20.20;75.90;;;;;;4492423;32;19969;-68
2022/11/01 00:56:02;;;;;;;;;;;20.20;75.90;;;;;;4492643;32;20385;-68
2022/11/01 00:58:28;;;;;;;;;;;20.20;75.90;;;;;;4492314;32;20043;-70
2022/11/01 01:00:53;;;;;;;;;;;20.20;75.90;;;;;;4492517;32;20119;-68
2022/11/01 01:03:19;;;;;;;;;;;20.20;76.00;;;;;;4492298;32;19974;-67
2022/11/01 01:05:47;;;;;;;;;;;20.20;76.00;;;;;;4492244;32;19981;-68
2022/11/01 01:08:12;;;;;;;;;;;20.20;76.00;;;;;;4492243;32;19993;-68
2022/11/01 01:10:38;;;;;;;;;;;20.20;76.00;;;;;;4491978;32;19966;-68
2022/11/01 01:13:03;;;;;;;;;;;20.10;76.00;;;;;;4492168;31;20079;-67
2022/11/01 01:15:29;;;;;;;;;;;20.10;76.00;;;;;;4480988;31;19966;-67
2022/11/01 01:17:55;;;;;;;;;;;20.10;76.00;;;;;;4495125;31;20040;-68
2022/11/01 01:20:21;;;;;;;;;;;20.10;76.00;;;;;;4495131;31;19962;-67
2022/11/01 01:22:47;;;;;;;;;;;20.10;76.10;;;;;;4495061;31;19982;-68
2022/11/01 01:25:12;;;;;;;;;;;20.10;76.00;;;;;;4495316;31;19983;-67
2022/11/01 01:27:38;;;;;;;;;;;20.10;76.10;;;;;;4495187;31;19970;-67
2022/11/01 01:30:04;;;;;;;;;;;20.10;76.10;;;;;;4495138;31;20331;-67
2022/11/01 01:32:30;;;;;;;;;;;20.10;76.10;;;;;;4494873;31;19985;-68
2022/11/01 01:34:56;;;;;;;;;;;20.10;76.10;;;;;;4495019;31;19965;-67
2022/11/01 01:37:21;;;;;;;;;;;20.10;76.10;;;;;;4494890;31;19980;-68
2022/11/01 01:39:47;;;;;;;;;;;20.10;76.10;;;;;;4494794;31;19976;-67
2022/11/01 01:42:23;;;;;;;;;;;20.10;76.00;;;;;;4480774;31;20013;-67
2022/11/01 01:45:09;;;;;;;;;;;20.00;75.90;;;;;;4494748;31;19977;-67
2022/11/01 01:47:39;;;;;;;;;;;20.10;76.00;;;;;;4477462;31;20043;-67
2022/11/01 01:50:12;;;;;;;;;;;20.10;75.90;;;;;;4494732;31;20492;-67
2022/11/01 01:52:42;;;;;;;;;;;20.00;75.90;;;;;;4494612;31;19982;-67
2022/11/01 01:55:09;;;;;;;;;;;20.10;75.80;;;;;;4494792;31;19982;-67
2022/11/01 01:57:36;;;;;;;;;;;20.10;75.80;;;;;;4494539;31;20399;-68
2022/11/01 02:00:03;;;;;;;;;;;20.00;75.80;;;;;;4494475;31;20387;-67
2022/11/01 02:02:29;;;;;;;;;;;20.00;75.80;;;;;;4494535;31;20397;-67
2022/11/01 02:04:59;;;;;;;;;;;20.00;75.80;;;;;;4494441;31;20021;-68
2022/11/01 02:07:25;;;;;;;;;;;20.00;75.80;;;;;;4494412;31;19996;-67
2022/11/01 02:09:51;;;;;;;;;;;20.00;75.80;;;;;;4494383;31;19977;-68
2022/11/01 02:12:17;;;;;;;;;;;20.00;75.80;;;;;;4494111;31;19977;-68
2022/11/01 02:14:43;;;;;;;;;;;20.00;75.80;;;;;;4494293;31;20008;-68
2022/11/01 02:17:25;;;;;;;;;;;20.00;75.80;;;;;;4494270;31;19982;-67
2022/11/01 02:20:14;;;;;;;;;;;20.00;75.80;;;;;;4494545;31;20454;-67
2022/11/01 02:22:46;;;;;;;;;;;20.00;75.80;;;;;;4494112;31;19981;-68
2022/11/01 02:25:30;;;;;;;;;;;20.00;75.80;;;;;;4493666;31;19985;-67
2022/11/01 02:28:15;;;;;;;;;;;20.00;75.80;;;;;;4494407;31;20112;-68
2022/11/01 02:30:51;;;;;;;;;;;20.00;75.80;;;;;;4494026;31;19985;-67
2022/11/01 02:33:16;;;;;;;;;;;20.00;75.80;;;;;;4493875;31;20451;-67
2022/11/01 02:35:50;;;;;;;;;;;19.90;75.70;;;;;;4493948;31;20088;-68
2022/11/01 02:38:33;;;;;;;;;;;20.00;75.80;;;;;;4494308;31;19978;-67
2022/11/01 02:41:14;;;;;;;;;;;19.90;75.70;;;;;;4493768;31;20091;-68
2022/11/01 02:43:47;;;;;;;;;;;19.90;75.80;;;;;;4494070;31;19981;-68
2022/11/01 02:48:58;;;;;;;;;;;19.90;75.70;;;;;;4494072;31;20434;-67
2022/11/01 02:51:25;;;;;;;;;;;19.90;75.70;;;;;;4493670;31;20131;-67
2022/11/01 02:53:50;;;;;;;;;;;19.90;75.70;;;;;;4493997;31;20527;-67
2022/11/01 02:56:17;;;;;;;;;;;19.90;75.70;;;;;;4479666;31;20107;-68
2022/11/01 02:58:43;;;;;;;;;;;19.90;75.70;;;;;;4493660;31;19965;-69
2022/11/01 03:01:14;;;;;;;;;;;19.90;75.70;;;;;;4493620;31;19985;-67
2022/11/01 03:03:41;;;;;;;;;;;19.90;75.80;;;;;;4493819;31;19984;-68
2022/11/01 03:06:12;;;;;;;;;;;19.90;75.80;;;;;;4493189;31;19988;-67
2022/11/01 03:08:45;;;;;;;;;;;19.80;75.70;;;;;;4493758;31;20307;-67
2022/11/01 03:11:13;;;;;;;;;;;19.80;75.80;;;;;;4493475;31;19974;-67
2022/11/01 03:13:48;;;;;;;;;;;19.80;75.80;;;;;;4493340;31;19969;-68
2022/11/01 03:16:13;;;;;;;;;;;19.80;75.80;;;;;;4493177;31;19977;-67
2022/11/01 03:18:44;;;;;;;;;;;19.80;75.80;;;;;;4493044;31;20004;-67
2022/11/01 03:21:14;;;;;;;;;;;19.80;75.80;;;;;;4493555;31;19973;-67
2022/11/01 03:23:43;;;;;;;;;;;19.80;75.90;;;;;;4493272;31;19981;-67
2022/11/01 03:26:13;;;;;;;;;;;19.80;75.90;;;;;;4493320;31;20379;-67
2022/11/01 03:28:41;;;;;;;;;;;19.80;75.90;;;;;;4493498;31;19969;-67
2022/11/01 03:31:11;;;;;;;;;;;19.80;75.90;;;;;;4492829;31;20029;-67
2022/11/01 03:33:40;;;;;;;;;;;19.80;75.90;;;;;;4493170;31;19982;-67
2022/11/01 03:36:10;;;;;;;;;;;19.70;75.90;;;;;;4493189;31;20341;-67
2022/11/01 03:38:38;;;;;;;;;;;19.70;75.90;;;;;;4493171;31;19973;-67
2022/11/01 03:41:06;;;;;;;;;;;19.70;75.90;;;;;;4478886;31;19981;-67
2022/11/01 03:43:34;;;;;;;;;;;19.70;75.80;;;;;;4492990;31;19988;-68
2022/11/01 03:46:00;;;;;;;;;;;19.70;75.90;;;;;;4492726;31;19982;-67
2022/11/01 03:48:26;;;;;;;;;;;19.70;75.80;;;;;;4492953;31;19962;-67
2022/11/01 03:50:52;;;;;;;;;;;19.70;75.90;;;;;;4492971;31;20502;-67
2022/11/01 03:53:18;;;;;;;;;;;19.70;75.90;;;;;;4493126;31;19988;-68
2022/11/01 03:55:44;;;;;;;;;;;19.70;75.90;;;;;;4492863;31;20005;-67
2022/11/01 03:58:10;;;;;;;;;;;19.70;75.90;;;;;;4492595;31;20410;-67
2022/11/01 04:00:37;;;;;;;;;;;19.70;75.90;;;;;;4492716;31;20055;-67
2022/11/01 04:03:03;;;;;;;;;;;19.70;75.90;;;;;;4492642;31;19985;-67
2022/11/01 04:05:29;;;;;;;;;;;19.70;75.90;;;;;;4492770;31;20098;-67
2022/11/01 04:07:55;;;;;;;;;;;19.70;75.90;;;;;;4492750;31;20072;-67
2022/11/01 04:10:21;;;;;;;;;;;19.70;75.80;;;;;;4492546;31;19969;-69
2022/11/01 04:12:48;;;;;;;;;;;19.70;75.90;;;;;;4492733;31;20052;-67
2022/11/01 04:20:45;;;;;;;;;;;19.70;75.90;;;;;;4492777;31;20151;-67
2022/11/01 04:23:10;;;;;;;;;;;19.60;75.90;;;;;;4492868;31;19979;-67
2022/11/01 04:25:36;;;;;;;;;;;19.60;75.90;;;;;;4492639;32;20019;-67
2022/11/01 04:28:02;;;;;;;;;;;19.60;75.90;;;;;;4492844;32;19972;-67
2022/11/01 04:30:28;;;;;;;;;;;19.60;75.90;;;;;;4492227;32;20013;-67
2022/11/01 04:32:54;;;;;;;;;;;19.60;75.90;;;;;;4492094;32;19969;-67
2022/11/01 04:35:20;;;;;;;;;;;19.60;75.90;;;;;;4492822;32;20314;-67
2022/11/01 04:37:46;;;;;;;;;;;19.60;75.90;;;;;;4492493;32;19985;-67
2022/11/01 04:40:12;;;;;;;;;;;19.60;75.90;;;;;;4492734;32;20071;-67
2022/11/01 04:42:38;;;;;;;;;;;19.60;75.90;;;;;;4492254;32;19984;-67
2022/11/01 04:45:04;;;;;;;;;;;19.60;75.90;;;;;;4492482;32;20315;-67
2022/11/01 04:47:31;;;;;;;;;;;19.60;75.90;;;;;;4492536;32;20418;-68
2022/11/01 04:49:56;;;;;;;;;;;19.60;75.90;;;;;;4494802;31;19966;-67
2022/11/01 04:52:22;;;;;;;;;;;19.60;76.00;;;;;;4495297;31;20307;-67
2022/11/01 04:54:48;;;;;;;;;;;19.60;75.90;;;;;;4496085;31;19962;-67
2022/11/01 04:57:23;;;;;;;;;;;19.60;75.90;;;;;;4495510;31;20127;-67
2022/11/01 04:59:50;;;;;;;;;;;19.60;75.90;;;;;;4495696;31;20411;-67
2022/11/01 05:02:16;;;;;;;;;;;19.60;75.90;;;;;;4495746;31;19992;-67
2022/11/01 05:04:41;;;;;;;;;;;19.60;75.90;;;;;;4495380;31;20103;-67
2022/11/01 05:07:07;;;;;;;;;;;19.60;75.90;;;;;;4495265;31;19975;-67
2022/11/01 05:09:33;;;;;;;;;;;19.60;75.90;;;;;;4495370;31;19973;-67
2022/11/01 05:11:58;;;;;;;;;;;19.60;75.90;;;;;;4495310;31;19966;-67
2022/11/01 05:14:24;;;;;;;;;;;19.50;75.80;;;;;;4495216;31;20355;-67
2022/11/01 05:16:50;;;;;;;;;;;19.60;75.90;;;;;;4481106;31;19976;-67
2022/11/01 05:19:15;;;;;;;;;;;19.50;75.90;;;;;;4494939;31;20005;-67
2022/11/01 05:21:41;;;;;;;;;;;19.60;76.00;;;;;;4495169;31;20314;-67
2022/11/01 05:24:07;;;;;;;;;;;19.50;75.80;;;;;;4494827;31;20322;-67
2022/11/01 05:26:32;;;;;;;;;;;19.60;75.90;;;;;;4494779;31;20389;-67
2022/11/01 05:28:58;;;;;;;;;;;19.50;75.80;;;;;;4495097;31;19969;-67
2022/11/01 05:31:24;;;;;;;;;;;19.60;75.90;;;;;;4480345;31;20001;-67
2022/11/01 05:33:50;;;;;;;;;;;19.50;75.80;;;;;;4494643;31;20047;-67
2022/11/01 05:36:15;;;;;;;;;;;19.50;75.80;;;;;;4494938;31;20170;-67
2022/11/01 05:38:41;;;;;;;;;;;19.50;75.80;;;;;;4494712;31;20307;-67
2022/11/01 05:41:07;;;;;;;;;;;19.50;75.80;;;;;;4494653;31;20050;-68
2022/11/01 05:43:32;;;;;;;;;;;19.50;75.90;;;;;;4494567;31;20096;-67
2022/11/01 05:46:01;;;;;;;;;;;19.50;75.80;;;;;;4494584;31;20032;-67
2022/11/01 05:48:28;;;;;;;;;;;19.50;75.80;;;;;;4494971;31;19981;-67
2022/11/01 05:50:53;;;;;;;;;;;19.50;75.80;;;;;;4495069;31;20322;-67
2022/11/01 05:53:19;;;;;;;;;;;19.50;75.80;;;;;;4480524;31;20307;-67
2022/11/01 05:55:45;;;;;;;;;;;19.50;75.70;;;;;;4494668;31;19974;-67
2022/11/01 05:58:11;;;;;;;;;;;19.60;75.80;;;;;;4494644;31;20095;-67
2022/11/01 06:00:36;;;;;;;;;;;19.50;75.70;;;;;;4493586;31;19985;-67
2022/11/01 06:03:02;;;;;;;;;;;19.50;75.70;;;;;;4494282;31;19969;-67
2022/11/01 06:05:28;;;;;;;;;;;19.50;75.70;;;;;;4494533;31;20060;-67
2022/11/01 06:07:54;;;;;;;;;;;19.50;75.70;;;;;;4494483;31;19970;-67
2022/11/01 06:10:19;;;;;;;;;;;19.50;75.80;;;;;;4494468;31;20099;-67
2022/11/01 06:12:45;;;;;;;;;;;19.50;75.70;;;;;;4494362;31;20403;-67
2022/11/01 06:15:11;;;;;;;;;;;19.50;75.70;;;;;;4494336;31;19996;-68
2022/11/01 06:17:36;;;;;;;;;;;19.50;75.70;;;;;;4494162;31;19980;-67
2022/11/01 06:20:02;;;;;;;;;;;19.50;75.70;;;;;;4494564;31;19961;-67
2022/11/01 06:22:28;;;;;;;;;;;19.50;75.70;;;;;;4494240;31;20032;-67
2022/11/01 06:24:54;;;;;;;;;;;19.50;75.70;;;;;;4494431;31;20080;-67
2022/11/01 06:27:19;;;;;;;;;;;19.50;75.70;;;;;;4494231;31;20000;-68
2022/11/01 06:29:45;;;;;;;;;;;19.50;75.70;;;;;;4494120;31;19989;-68
2022/11/01 06:32:11;;;;;;;;;;;19.50;75.70;;;;;;4494100;31;19961;-67
2022/11/01 06:34:37;;;;;;;;;;;19.50;75.70;;;;;;4466802;31;19969;-68
2022/11/01 06:37:03;;;;;;;;;;;19.50;75.70;;;;;;4494050;31;19966;-67
2022/11/01 06:39:28;;;;;;;;;;;19.50;75.80;;;;;;4493683;31;19961;-67
2022/11/01 06:41:54;;;;;;;;;;;19.50;75.70;;;;;;4493917;31;19994;-67
2022/11/01 06:44:20;;;;;;;;;;;19.50;75.80;;;;;;4494228;31;19965;-67
2022/11/01 06:46:45;;;;;;;;;;;19.50;75.80;;;;;;4493871;31;19977;-67
2022/11/01 06:49:12;;;;;;;;;;;19.50;75.80;;;;;;4494125;31;20032;-67
2022/11/01 06:51:38;;;;;;;;;;;19.50;75.80;;;;;;4494040;31;20565;-67
2022/11/01 06:54:03;;;;;;;;;;;19.50;75.70;;;;;;4493531;31;19974;-67
2022/11/01 06:56:29;;;;;;;;;;;19.50;75.70;;;;;;4493754;31;19969;-68
2022/11/01 06:59:00;;;;;;;;;;;19.50;75.80;;;;;;4493677;31;20454;-67
2022/11/01 07:01:27;;;;;;;;;;;19.50;75.80;;;;;;4493595;31;20099;-67
2022/11/01 07:03:52;;;;;;;;;;;19.40;75.70;;;;;;4493660;31;19989;-67
2022/11/01 07:06:18;;;;;;;;;;;19.40;75.70;;;;;;4493332;31;20391;-67
2022/11/01 07:08:44;;;;;;;;;;;19.40;75.70;;;;;;4493546;31;20392;-68
2022/11/01 07:11:10;;;;;;;;;;;19.40;75.70;;;;;;4493282;31;20054;-67
2022/11/01 07:13:37;;;;;;;;;;;19.40;75.60;;;;;;4493721;31;19978;-68
2022/11/01 07:16:03;;;;;;;;;;;19.50;75.70;;;;;;4493690;31;20387;-67
2022/11/01 07:18:30;;;;;;;;;;;19.40;75.70;;;;;;4493393;31;20480;-69
2022/11/01 07:20:56;;;;;;;;;;;19.40;75.60;;;;;;4493492;31;19993;-67
2022/11/01 07:23:21;;;;;;;;;;;19.40;75.80;;;;;;4493327;31;19965;-66
2022/11/01 07:25:51;;;;;;;;;;;19.40;75.40;;;;;;4492903;31;20021;-67
2022/11/01 07:28:16;;;;;;;;;;;19.40;74.80;;;;;;4478908;31;19981;-66
2022/11/01 07:30:45;;;;;;;;;;;19.40;74.30;;;;;;4492928;31;19984;-67
2022/11/01 07:33:11;;;;;;;;;;;19.40;73.60;;;;;;4487846;31;20136;-67
2022/11/01 07:35:37;;;;;;;;;;;19.30;73.50;;;;;;4493443;31;19970;-67
2022/11/01 07:38:02;;;;;;;;;;;19.30;74.30;;;;;;4492913;31;20311;-67
2022/11/01 07:40:28;;;;;;;;;;;19.30;74.30;;;;;;4492841;31;20392;-67
2022/11/01 07:42:55;;;;;;;;;;;19.30;74.40;;;;;;4493041;31;19961;-67
2022/11/01 07:45:21;;;;;;;;;;;19.30;74.50;;;;;;4493094;31;19981;-67
2022/11/01 07:47:47;;;;;;;;;;;19.30;74.60;;;;;;4493282;31;19962;-67
2022/11/01 07:50:13;;;;;;;;;;;19.30;74.60;;;;;;4492784;31;19992;-67
2022/11/01 07:52:39;;;;;;;;;;;19.30;74.40;;;;;;4493127;31;19981;-67
2022/11/01 07:55:05;;;;;;;;;;;19.30;74.50;;;;;;4492878;31;20102;-67
2022/11/01 07:57:30;;;;;;;;;;;19.30;74.50;;;;;;4492925;31;20298;-68
2022/11/01 07:59:56;;;;;;;;;;;19.30;74.60;;;;;;4492495;31;19973;-67
2022/11/01 08:02:22;;;;;;;;;;;19.30;74.70;;;;;;4492764;31;19969;-67
2022/11/01 08:04:47;;;;;;;;;;;19.30;74.50;;;;;;4492832;31;20372;-67
2022/11/01 08:07:13;;;;;;;;;;;19.30;74.30;;;;;;4492769;31;19976;-67
2022/11/01 08:09:41;;;;;;;;;;;19.30;74.30;;;;;;4492727;31;20441;-68
2022/11/01 08:12:06;;;;;;;;;;;19.30;74.40;;;;;;4492769;31;19969;-67
2022/11/01 08:14:32;;;;;;;;;;;19.30;74.40;;;;;;4492587;31;19992;-67
2022/11/01 08:17:00;;;;;;;;;;;19.30;74.30;;;;;;4492437;31;20027;-67
2022/11/01 08:19:26;;;;;;;;;;;19.30;74.40;;;;;;4492897;31;19997;-67
2022/11/01 08:21:51;;;;;;;;;;;19.30;74.30;;;;;;4492621;31;19957;-67
2022/11/01 08:24:17;;;;;;;;;;;19.30;74.40;;;;;;4492379;31;19984;-67
2022/11/01 08:26:43;;;;;;;;;;;19.30;74.40;;;;;;4492679;32;19981;-68
2022/11/01 08:29:09;;;;;;;;;;;19.30;74.40;;;;;;4492700;32;19966;-67
2022/11/01 08:31:38;;;;;;;;;;;19.30;74.30;;;;;;4492121;31;20379;-68
2022/11/01 08:34:03;;;;;;;;;;;19.30;74.40;;;;;;4492584;32;19986;-67
2022/11/01 08:36:29;;;;;;;;;;;19.30;74.20;;;;;;4492304;32;20039;-67
2022/11/01 08:38:56;;;;;;;;;;;19.30;74.30;;;;;;4492495;32;20113;-67
2022/11/01 08:41:22;;;;;;;;;;;19.30;74.50;;;;;;4492490;32;20383;-67
2022/11/01 08:43:48;;;;;;;;;;;19.30;74.40;;;;;;4478139;32;20100;-67
2022/11/01 08:46:13;;;;;;;;;;;19.30;74.40;;;;;;4492442;32;19995;-67
2022/11/01 08:48:39;;;;;;;;;;;19.30;74.40;;;;;;4478008;32;19973;-67
2022/11/01 08:51:06;;;;;;;;;;;19.30;74.40;;;;;;4492472;32;20021;-67
2022/11/01 08:53:31;;;;;;;;;;;19.30;74.40;;;;;;4492345;32;19980;-67
2022/11/01 08:55:57;;;;;;;;;;;19.30;74.30;;;;;;4492417;32;19962;-67
2022/11/01 08:58:23;;;;;;;;;;;19.30;74.20;;;;;;4492653;32;19981;-67
2022/11/01 09:00:49;;;;;;;;;;;19.30;74.20;;;;;;4492379;32;20419;-67
2022/11/01 09:03:15;;;;;;;;;;;19.30;74.20;;;;;;4492740;32;20548;-68
2022/11/01 09:05:40;;;;;;;;;;;19.30;74.20;;;;;;4492661;32;19980;-68
2022/11/01 09:08:06;;;;;;;;;;;19.30;74.20;;;;;;4492157;32;19958;-68
2022/11/01 09:10:32;;;;;;;;;;;19.30;75.20;;;;;;4492388;32;19966;-68
2022/11/01 09:12:59;;;;;;;;;;;19.30;74.50;;;;;;4492277;32;19984;-69
2022/11/01 09:15:25;;;;;;;;;;;19.30;74.40;;;;;;4492456;32;20111;-68
2022/11/01 09:17:51;;;;;;;;;;;19.30;74.50;;;;;;4492587;32;19978;-68
2022/11/01 09:20:17;;;;;;;;;;;19.30;74.50;;;;;;4492219;32;19974;-68
2022/11/01 09:22:43;;;;;;;;;;;19.30;74.50;;;;;;4492346;32;20456;-69
2022/11/01 09:25:09;;;;;;;;;;;19.30;74.50;;;;;;4465065;32;19974;-68
2022/11/01 09:27:34;;;;;;;;;;;19.40;74.70;;;;;;4492300;32;19966;-69
2022/11/01 09:30:00;;;;;;;;;;;19.30;74.60;;;;;;4492607;32;20086;-67
2022/11/01 09:32:26;;;;;;;;;;;19.40;74.70;;;;;;4492343;32;20315;-67
2022/11/01 09:34:52;;;;;;;;;;;19.30;74.60;;;;;;4493179;31;19973;-71
2022/11/01 09:37:17;;;;;;;;;;;19.30;74.70;;;;;;4495143;31;19977;-68
2022/11/01 09:39:43;;;;;;;;;;;19.40;74.70;;;;;;4494943;31;19974;-68
2022/11/01 09:42:13;;;;;;;;;;;19.40;74.70;;;;;;4494851;31;19981;-69
2022/11/01 09:44:41;;;;;;;;;;;19.30;74.60;;;;;;4494504;31;19965;-69
2022/11/01 09:47:13;;;;;;;;;;;19.40;74.70;;;;;;4495033;31;19989;-68
2022/11/01 09:49:40;;;;;;;;;;;19.40;74.60;;;;;;4494565;31;19969;-69
2022/11/01 09:52:09;;;;;;;;;;;19.40;74.70;;;;;;4495034;31;20370;-68
2022/11/01 09:54:35;;;;;;;;;;;19.40;74.50;;;;;;4495042;31;20012;-69
2022/11/01 09:57:01;;;;;;;;;;;19.30;74.50;;;;;;4494870;31;20009;-68
2022/11/01 09:59:36;;;;;;;;;;;19.40;74.60;;;;;;4494873;31;20154;-67
2022/11/01 10:02:11;;;;;;;;;;;19.40;74.60;;;;;;4494325;31;19973;-69
2022/11/01 10:04:52;;;;;;;;;;;19.40;74.40;;;;;;4494513;31;19977;-68
2022/11/01 10:07:24;;;;;;;;;;;19.40;74.50;;;;;;4494548;31;19992;-69
2022/11/01 10:10:02;;;;;;;;;;;19.40;74.30;;;;;;4494687;31;20296;-68
2022/11/01 10:12:40;;;;;;;;;;;19.40;74.10;;;;;;4494526;31;20406;-67
2022/11/01 10:15:42;;;;;;;;;;;19.40;74.20;;;;;;4494115;31;19984;-69
2022/11/01 10:18:17;;;;;;;;;;;19.40;74.20;;;;;;4445513;32;20419;-68
2022/11/01 10:20:43;;;;;;;;;;;19.40;74.20;;;;;;4487108;31;19987;-69
2022/11/01 10:23:11;;;;;;;;;;;19.40;74.00;;;;;;4494729;31;20051;-68
2022/11/01 10:25:38;;;;;;;;;;;19.40;73.40;;;;;;4494539;31;20004;-69
2022/11/01 10:28:04;;;;;;;;;;;19.40;73.30;;;;;;4494275;31;19981;-68
2022/11/01 10:30:33;;;;;;;;;;;19.40;72.70;;;;;;4480010;31;19961;-68
2022/11/01 10:33:05;;;;;;;;;;;19.40;72.90;;;;;;4493921;31;19987;-68
2022/11/01 10:35:39;;;;;;;;;;;19.40;72.80;;;;;;4494395;31;20341;-68
2022/11/01 10:38:24;;;;;;;;;;;19.40;72.20;;;;;;4494063;31;19982;-68
2022/11/01 10:41:02;;;;;;;;;;;19.40;72.60;;;;;;4494008;31;19981;-68
2022/11/01 10:43:29;;;;;;;;;;;19.40;72.30;;;;;;4479634;31;19988;-68
2022/11/01 10:45:56;;;;;;;;;;;19.40;72.50;;;;;;4493339;31;19980;-68
2022/11/01 10:48:22;;;;;;;;;;;19.30;72.30;;;;;;4494022;31;19969;-68
2022/11/01 10:50:47;;;;;;;;;;;19.40;72.20;;;;;;4494095;31;20469;-69
2022/11/01 10:53:17;;;;;;;;;;;19.30;72.00;;;;;;4494018;31;20391;-68
2022/11/01 10:55:45;;;;;;;;;;;19.30;72.00;;;;;;4493790;31;20386;-68
2022/11/01 10:58:11;;;;;;;;;;;19.30;71.90;;;;;;4493826;31;19977;-69
2022/11/01 11:00:39;;;;;;;;;;;19.30;71.80;;;;;;4493637;31;19984;-69
2022/11/01 11:03:12;;;;;;;;;;;19.40;71.90;;;;;;4493592;31;20009;-68
2022/11/01 11:05:38;;;;;;;;;;;19.40;72.10;;;;;;4494037;31;19977;-69
2022/11/01 11:08:12;;;;;;;;;;;19.40;71.80;;;;;;4493329;31;19966;-68
2022/11/01 11:10:39;;;;;;;;;;;19.30;71.40;;;;;;4493368;31;20108;-69
2022/11/01 11:13:06;;;;;;;;;;;19.30;71.30;;;;;;4493445;31;20053;-68
2022/11/01 11:15:44;;;;;;;;;;;19.40;71.60;;;;;;4493426;31;20174;-68
2022/11/01 11:18:22;;;;;;;;;;;19.30;71.40;;;;;;4493344;31;19996;-68
2022/11/01 11:20:53;;;;;;;;;;;19.30;72.20;;;;;;4493376;31;20453;-67
2022/11/01 11:23:21;;;;;;;;;;;19.30;70.90;;;;;;4493056;31;19965;-68
2022/11/01 11:25:49;;;;;;;;;;;19.30;71.10;;;;;;4493229;31;20410;-68
2022/11/01 11:28:20;;;;;;;;;;;19.30;70.80;;;;;;4493289;31;20310;-68
2022/11/01 11:30:46;;;;;;;;;;;19.30;70.40;;;;;;4493311;31;20086;-68
2022/11/01 11:33:14;;;;;;;;;;;19.30;70.60;;;;;;4492779;31;20003;-68
2022/11/01 11:35:43;;;;;;;;;;;19.20;70.10;;;;;;4478967;31;20331;-68
2022/11/01 11:38:11;;;;;;;;;;;19.30;70.20;;;;;;4493137;31;20572;-67
2022/11/01 11:40:39;;;;;;;;;;;19.20;70.30;;;;;;4493089;31;19985;-69
2022/11/01 11:43:20;;;;;;;;;;;19.20;69.70;;;;;;4492810;31;19978;-68
2022/11/01 11:46:02;;;;;;;;;;;19.20;69.50;;;;;;4493177;31;20013;-68
2022/11/01 11:48:27;;;;;;;;;;;19.20;69.30;;;;;;4492749;31;19973;-70
2022/11/01 11:51:03;;;;;;;;;;;19.20;69.50;;;;;;4492758;31;20050;-68
2022/11/01 11:53:32;;;;;;;;;;;19.20;69.80;;;;;;4478673;31;19992;-68
2022/11/01 11:55:59;;;;;;;;;;;19.20;69.70;;;;;;4492876;31;20075;-68
2022/11/01 11:58:36;;;;;;;;;;;19.20;69.60;;;;;;4492146;31;20169;-68
2022/11/01 12:01:06;;;;;;;;;;;19.20;69.40;;;;;;4492878;31;19978;-68
2022/11/01 12:03:52;;;;;;;;;;;19.20;69.50;;;;;;4492588;31;19977;-68
2022/11/01 12:06:21;;;;;;;;;;;19.20;69.40;;;;;;4492506;31;20040;-68
2022/11/01 12:08:52;;;;;;;;;;;19.20;69.70;;;;;;4492760;31;20050;-68
2022/11/01 12:11:18;;;;;;;;;;;19.20;69.50;;;;;;4493153;31;19985;-67
2022/11/01 12:13:45;;;;;;;;;;;19.20;69.20;;;;;;4493283;31;20499;-68
2022/11/01 12:16:23;;;;;;;;;;;19.20;69.70;;;;;;4492697;31;19977;-67
2022/11/01 12:18:48;;;;;;;;;;;19.20;69.50;;;;;;4492591;31;19969;-68
2022/11/01 12:21:17;;;;;;;;;;;19.20;69.40;;;;;;4492789;31;19980;-67
2022/11/01 12:23:44;;;;;;;;;;;19.20;69.20;;;;;;4492392;31;20142;-68
2022/11/01 12:26:13;;;;;;;;;;;19.20;69.00;;;;;;4492624;31;20054;-69
2022/11/01 12:28:41;;;;;;;;;;;19.20;69.20;;;;;;4492862;32;19982;-68
2022/11/01 12:31:10;;;;;;;;;;;19.20;69.30;;;;;;4492536;32;20118;-69
2022/11/01 12:33:39;;;;;;;;;;;19.20;69.60;;;;;;4492209;32;20017;-68
2022/11/01 12:36:06;;;;;;;;;;;19.10;69.80;;;;;;4492809;32;20375;-69
2022/11/01 12:38:36;;;;;;;;;;;19.20;69.50;;;;;;4492575;32;19999;-69
2022/11/01 12:41:22;;;;;;;;;;;19.20;69.40;;;;;;4492511;32;20099;-74
2022/11/01 12:43:51;;;;;;;;;;;19.20;69.60;;;;;;4492354;32;19973;-68
2022/11/01 12:46:35;;;;;;;;;;;19.20;69.70;;;;;;4492146;32;20022;-68
2022/11/01 12:49:05;;;;;;;;;;;19.20;69.10;;;;;;4492207;32;19971;-69
2022/11/01 12:51:36;;;;;;;;;;;19.20;68.80;;;;;;4492477;32;20325;-68
2022/11/01 12:54:21;;;;;;;;;;;19.20;67.90;;;;;;4492630;32;20371;-68
2022/11/01 12:56:46;;;;;;;;;;;19.20;68.60;;;;;;4492738;32;20010;-68
2022/11/01 12:59:14;;;;;;;;;;;19.20;68.50;;;;;;4492136;32;20074;-69
2022/11/01 13:01:52;;;;;;;;;;;19.20;68.40;;;;;;4492292;32;20366;-69
2022/11/01 13:04:17;;;;;;;;;;;19.20;68.60;;;;;;4492598;32;20058;-69
2022/11/01 13:06:49;;;;;;;;;;;19.20;68.70;;;;;;4492314;32;19982;-70
2022/11/01 13:09:36;;;;;;;;;;;19.20;68.70;;;;;;4478079;31;20024;-69
2022/11/01 13:12:06;;;;;;;;;;;19.20;68.90;;;;;;4495755;31;20018;-69
2022/11/01 13:14:32;;;;;;;;;;;19.20;68.80;;;;;;4495043;31;19981;-69
2022/11/01 13:17:24;;;;;;;;;;;19.20;68.90;;;;;;4495275;31;20325;-70
2022/11/01 13:19:55;;;;;;;;;;;19.20;68.80;;;;;;4492965;31;20051;-69
2022/11/01 13:22:29;;;;;;;;;;;19.20;68.90;;;;;;4481101;31;19981;-69
2022/11/01 13:25:04;;;;;;;;;;;19.20;69.00;;;;;;4495244;31;20471;-69
2022/11/01 13:27:36;;;;;;;;;;;19.20;69.10;;;;;;4495121;31;19981;-69
2022/11/01 13:30:09;;;;;;;;;;;19.20;69.10;;;;;;4495071;31;20108;-68
2022/11/01 13:32:35;;;;;;;;;;;19.20;69.00;;;;;;4495085;31;19977;-69
2022/11/01 13:35:00;;;;;;;;;;;19.20;69.20;;;;;;4494926;31;20392;-69
2022/11/01 13:37:45;;;;;;;;;;;19.20;69.30;;;;;;4495057;31;20139;-68
2022/11/01 13:40:11;;;;;;;;;;;19.20;69.40;;;;;;4495026;31;20338;-69
2022/11/01 13:42:42;;;;;;;;;;;19.20;69.40;;;;;;4495123;31;19969;-69
2022/11/01 13:45:11;;;;;;;;;;;19.20;69.60;;;;;;4494862;31;20402;-69
2022/11/01 13:48:03;;;;;;;;;;;19.20;69.80;;;;;;4494806;31;19997;-69
2022/11/01 13:50:49;;;;;;;;;;;19.20;70.10;;;;;;4494650;31;19974;-69
2022/11/01 13:53:18;;;;;;;;;;;19.30;70.10;;;;;;4469783;31;19992;-69
2022/11/01 13:55:54;;;;;;;;;;;19.30;70.10;;;;;;4494625;31;19979;-70
2022/11/01 13:58:22;;;;;;;;;;;19.30;70.30;;;;;;4494604;31;20115;-70
2022/11/01 14:00:50;;;;;;;;;;;19.30;70.40;;;;;;4494350;31;19974;-70
2022/11/01 14:03:18;;;;;;;;;;;19.40;70.40;;;;;;4494855;31;19970;-69
2022/11/01 14:05:45;;;;;;;;;;;19.40;70.40;;;;;;4494722;31;20021;-68
2022/11/01 14:08:12;;;;;;;;;;;19.30;70.40;;;;;;4494596;31;19969;-69
2022/11/01 14:10:37;;;;;;;;;;;19.30;70.40;;;;;;4494678;31;20393;-68
2022/11/01 14:13:06;;;;;;;;;;;19.30;70.40;;;;;;4494554;31;20029;-69
2022/11/01 14:15:35;;;;;;;;;;;19.30;70.60;;;;;;4494325;31;20055;-72
2022/11/01 14:18:04;;;;;;;;;;;19.30;70.60;;;;;;4494446;31;19992;-69
2022/11/01 14:20:32;;;;;;;;;;;19.30;70.60;;;;;;4494276;31;20040;-66
2022/11/01 14:23:16;;;;;;;;;;;19.40;70.60;;;;;;4493727;31;20059;-66
2022/11/01 14:25:42;;;;;;;;;;;19.40;71.50;;;;;;4494428;31;20055;-70
2022/11/01 14:28:17;;;;;;;;;;;19.30;70.40;;;;;;4494320;31;19982;-71
2022/11/01 14:30:52;;;;;;;;;;;19.30;70.40;;;;;;4494217;31;19966;-69